sensor_id;sensor_type;location;lat;lon;timestamp;P1;durP1;ratioP1;P2;durP2;ratioP2
21038;SDS011;10678;51.002;4.786;2024-03-08T00:00:34;26.50;;;13.13;;
21038;SDS011;10678;51.002;4.786;2024-03-08T00:02:59;28.10;;;12.57;;
21038;SDS011;10678;51.002;4.786;2024-03-08T00:05:28;27.93;;;14.23;;
21038;SDS011;10678;51.002;4.786;2024-03-08T00:07:53;27.67;;;15.03;;
21038;SDS011;10678;51.002;4.786;2024-03-08T00:10:19;29.27;;;14.57;;
21038;SDS011;10678;51.002;4.786;2024-03-08T00:12:45;27.70;;;13.40;;
21038;SDS011;10678;51.002;4.786;2024-03-08T00:15:12;29.70;;;14.57;;
21038;SDS011;10678;51.002;4.786;2024-03-08T00:17:42;28.40;;;14.33;;
21038;SDS011;10678;51.002;4.786;2024-03-08T00:20:08;30.77;;;15.20;;
21038;SDS011;10678;51.002;4.786;2024-03-08T00:22:34;30.10;;;14.97;;
21038;SDS011;10678;51.002;4.786;2024-03-08T00:25:01;32.30;;;14.03;;
21038;SDS011;10678;51.002;4.786;2024-03-08T00:27:27;29.87;;;14.43;;
21038;SDS011;10678;51.002;4.786;2024-03-08T00:29:57;26.47;;;14.03;;
21038;SDS011;10678;51.002;4.786;2024-03-08T00:32:22;22.27;;;12.97;;
21038;SDS011;10678;51.002;4.786;2024-03-08T00:34:52;28.90;;;14.37;;
21038;SDS011;10678;51.002;4.786;2024-03-08T00:37:21;25.57;;;13.17;;
21038;SDS011;10678;51.002;4.786;2024-03-08T00:39:47;27.57;;;13.53;;
21038;SDS011;10678;51.002;4.786;2024-03-08T00:42:17;28.97;;;13.97;;
21038;SDS011;10678;51.002;4.786;2024-03-08T00:44:43;27.77;;;14.73;;
21038;SDS011;10678;51.002;4.786;2024-03-08T00:47:09;27.90;;;13.37;;
21038;SDS011;10678;51.002;4.786;2024-03-08T00:49:35;25.57;;;12.97;;
21038;SDS011;10678;51.002;4.786;2024-03-08T00:52:03;26.57;;;12.47;;
21038;SDS011;10678;51.002;4.786;2024-03-08T00:54:32;30.13;;;13.80;;
21038;SDS011;10678;51.002;4.786;2024-03-08T00:56:58;29.00;;;14.33;;
21038;SDS011;10678;51.002;4.786;2024-03-08T00:59:23;26.73;;;12.67;;
21038;SDS011;10678;51.002;4.786;2024-03-08T01:01:49;24.00;;;13.57;;
21038;SDS011;10678;51.002;4.786;2024-03-08T01:04:14;28.07;;;14.70;;
21038;SDS011;10678;51.002;4.786;2024-03-08T01:06:40;25.60;;;13.77;;
21038;SDS011;10678;51.002;4.786;2024-03-08T01:09:07;30.70;;;15.23;;
21038;SDS011;10678;51.002;4.786;2024-03-08T01:11:34;26.53;;;13.97;;
21038;SDS011;10678;51.002;4.786;2024-03-08T01:13:59;26.23;;;14.37;;
21038;SDS011;10678;51.002;4.786;2024-03-08T01:16:26;27.83;;;15.30;;
21038;SDS011;10678;51.002;4.786;2024-03-08T01:18:51;25.57;;;13.87;;
21038;SDS011;10678;51.002;4.786;2024-03-08T01:21:17;26.00;;;13.80;;
21038;SDS011;10678;51.002;4.786;2024-03-08T01:23:43;30.50;;;16.10;;
21038;SDS011;10678;51.002;4.786;2024-03-08T01:26:08;28.37;;;15.20;;
21038;SDS011;10678;51.002;4.786;2024-03-08T01:28:34;24.53;;;13.40;;
21038;SDS011;10678;51.002;4.786;2024-03-08T01:31:00;24.83;;;14.00;;
21038;SDS011;10678;51.002;4.786;2024-03-08T01:33:26;24.87;;;14.30;;
21038;SDS011;10678;51.002;4.786;2024-03-08T01:35:52;30.57;;;14.40;;
21038;SDS011;10678;51.002;4.786;2024-03-08T01:38:18;29.13;;;14.13;;
21038;SDS011;10678;51.002;4.786;2024-03-08T01:40:46;22.93;;;14.00;;
21038;SDS011;10678;51.002;4.786;2024-03-08T01:43:30;27.30;;;14.43;;
21038;SDS011;10678;51.002;4.786;2024-03-08T01:45:58;23.97;;;14.03;;
21038;SDS011;10678;51.002;4.786;2024-03-08T01:48:25;28.23;;;15.50;;
21038;SDS011;10678;51.002;4.786;2024-03-08T01:50:51;28.33;;;15.87;;
21038;SDS011;10678;51.002;4.786;2024-03-08T01:53:19;28.73;;;15.17;;
21038;SDS011;10678;51.002;4.786;2024-03-08T01:55:46;25.63;;;16.13;;
21038;SDS011;10678;51.002;4.786;2024-03-08T01:58:13;24.20;;;15.03;;
21038;SDS011;10678;51.002;4.786;2024-03-08T02:00:43;27.17;;;15.73;;
21038;SDS011;10678;51.002;4.786;2024-03-08T02:03:10;27.00;;;15.33;;
21038;SDS011;10678;51.002;4.786;2024-03-08T02:05:36;29.70;;;14.80;;
21038;SDS011;10678;51.002;4.786;2024-03-08T02:08:03;29.90;;;16.00;;
21038;SDS011;10678;51.002;4.786;2024-03-08T02:10:32;27.47;;;15.37;;
21038;SDS011;10678;51.002;4.786;2024-03-08T02:13:01;29.97;;;15.47;;
21038;SDS011;10678;51.002;4.786;2024-03-08T02:18:19;24.30;;;14.30;;
21038;SDS011;10678;51.002;4.786;2024-03-08T02:20:46;24.27;;;14.67;;
21038;SDS011;10678;51.002;4.786;2024-03-08T02:23:13;26.70;;;14.77;;
21038;SDS011;10678;51.002;4.786;2024-03-08T02:25:39;28.10;;;15.53;;
21038;SDS011;10678;51.002;4.786;2024-03-08T02:28:06;27.80;;;15.70;;
21038;SDS011;10678;51.002;4.786;2024-03-08T02:30:36;28.27;;;15.63;;
21038;SDS011;10678;51.002;4.786;2024-03-08T02:33:03;29.30;;;15.27;;
21038;SDS011;10678;51.002;4.786;2024-03-08T02:35:34;26.83;;;15.77;;
21038;SDS011;10678;51.002;4.786;2024-03-08T02:38:00;27.53;;;15.73;;
21038;SDS011;10678;51.002;4.786;2024-03-08T02:40:26;24.80;;;14.83;;
21038;SDS011;10678;51.002;4.786;2024-03-08T02:42:52;28.77;;;15.80;;
21038;SDS011;10678;51.002;4.786;2024-03-08T02:45:18;24.77;;;15.00;;
21038;SDS011;10678;51.002;4.786;2024-03-08T02:47:43;28.67;;;15.73;;
21038;SDS011;10678;51.002;4.786;2024-03-08T02:50:09;27.27;;;15.83;;
21038;SDS011;10678;51.002;4.786;2024-03-08T02:52:35;30.43;;;15.63;;
21038;SDS011;10678;51.002;4.786;2024-03-08T02:55:01;26.40;;;15.40;;
21038;SDS011;10678;51.002;4.786;2024-03-08T02:57:27;25.33;;;15.20;;
21038;SDS011;10678;51.002;4.786;2024-03-08T02:59:56;26.23;;;15.50;;
21038;SDS011;10678;51.002;4.786;2024-03-08T03:02:21;30.13;;;15.87;;
21038;SDS011;10678;51.002;4.786;2024-03-08T03:04:48;25.33;;;15.40;;
21038;SDS011;10678;51.002;4.786;2024-03-08T03:07:14;24.93;;;15.57;;
21038;SDS011;10678;51.002;4.786;2024-03-08T03:09:39;33.67;;;16.83;;
21038;SDS011;10678;51.002;4.786;2024-03-08T03:12:05;27.70;;;17.10;;
21038;SDS011;10678;51.002;4.786;2024-03-08T03:14:34;26.63;;;16.17;;
21038;SDS011;10678;51.002;4.786;2024-03-08T03:17:03;27.23;;;15.80;;
21038;SDS011;10678;51.002;4.786;2024-03-08T03:19:29;29.43;;;15.60;;
21038;SDS011;10678;51.002;4.786;2024-03-08T03:21:55;26.80;;;15.60;;
21038;SDS011;10678;51.002;4.786;2024-03-08T03:24:21;32.23;;;17.57;;
21038;SDS011;10678;51.002;4.786;2024-03-08T03:26:48;25.57;;;14.27;;
21038;SDS011;10678;51.002;4.786;2024-03-08T03:29:14;26.27;;;15.70;;
21038;SDS011;10678;51.002;4.786;2024-03-08T03:31:41;27.67;;;15.53;;
21038;SDS011;10678;51.002;4.786;2024-03-08T03:34:11;27.23;;;16.03;;
21038;SDS011;10678;51.002;4.786;2024-03-08T03:36:37;26.17;;;16.23;;
21038;SDS011;10678;51.002;4.786;2024-03-08T03:39:07;27.07;;;15.07;;
21038;SDS011;10678;51.002;4.786;2024-03-08T03:41:40;29.00;;;15.17;;
21038;SDS011;10678;51.002;4.786;2024-03-08T03:44:07;28.60;;;15.97;;
21038;SDS011;10678;51.002;4.786;2024-03-08T03:46:33;29.20;;;14.37;;
21038;SDS011;10678;51.002;4.786;2024-03-08T03:48:58;26.40;;;15.30;;
21038;SDS011;10678;51.002;4.786;2024-03-08T03:51:24;25.50;;;14.93;;
21038;SDS011;10678;51.002;4.786;2024-03-08T03:53:50;24.73;;;14.57;;
21038;SDS011;10678;51.002;4.786;2024-03-08T03:56:18;26.50;;;15.97;;
21038;SDS011;10678;51.002;4.786;2024-03-08T03:58:44;26.47;;;15.23;;
21038;SDS011;10678;51.002;4.786;2024-03-08T04:01:09;26.23;;;15.97;;
21038;SDS011;10678;51.002;4.786;2024-03-08T04:03:35;27.00;;;15.73;;
21038;SDS011;10678;51.002;4.786;2024-03-08T04:06:02;24.80;;;14.90;;
21038;SDS011;10678;51.002;4.786;2024-03-08T04:08:29;27.73;;;15.90;;
21038;SDS011;10678;51.002;4.786;2024-03-08T04:10:56;25.53;;;15.00;;
21038;SDS011;10678;51.002;4.786;2024-03-08T04:13:23;29.00;;;15.20;;
21038;SDS011;10678;51.002;4.786;2024-03-08T04:15:48;28.90;;;14.77;;
21038;SDS011;10678;51.002;4.786;2024-03-08T04:18:14;27.63;;;15.10;;
21038;SDS011;10678;51.002;4.786;2024-03-08T04:20:40;31.10;;;16.63;;
21038;SDS011;10678;51.002;4.786;2024-03-08T04:23:05;28.37;;;15.57;;
21038;SDS011;10678;51.002;4.786;2024-03-08T04:25:31;28.43;;;15.53;;
21038;SDS011;10678;51.002;4.786;2024-03-08T04:27:57;28.87;;;16.17;;
21038;SDS011;10678;51.002;4.786;2024-03-08T04:30:23;27.57;;;15.07;;
21038;SDS011;10678;51.002;4.786;2024-03-08T04:32:49;27.93;;;14.43;;
21038;SDS011;10678;51.002;4.786;2024-03-08T04:35:15;31.03;;;16.33;;
21038;SDS011;10678;51.002;4.786;2024-03-08T04:37:41;27.50;;;15.37;;
21038;SDS011;10678;51.002;4.786;2024-03-08T04:40:06;28.57;;;16.30;;
21038;SDS011;10678;51.002;4.786;2024-03-08T04:42:32;23.43;;;14.73;;
21038;SDS011;10678;51.002;4.786;2024-03-08T04:45:00;24.80;;;14.73;;
21038;SDS011;10678;51.002;4.786;2024-03-08T04:47:26;25.47;;;15.47;;
21038;SDS011;10678;51.002;4.786;2024-03-08T04:49:51;26.00;;;15.43;;
21038;SDS011;10678;51.002;4.786;2024-03-08T04:52:18;25.60;;;15.53;;
21038;SDS011;10678;51.002;4.786;2024-03-08T04:54:43;27.90;;;14.60;;
21038;SDS011;10678;51.002;4.786;2024-03-08T04:57:12;25.43;;;14.37;;
21038;SDS011;10678;51.002;4.786;2024-03-08T04:59:38;25.90;;;14.97;;
21038;SDS011;10678;51.002;4.786;2024-03-08T05:02:03;32.07;;;16.43;;
21038;SDS011;10678;51.002;4.786;2024-03-08T05:04:29;31.07;;;16.30;;
21038;SDS011;10678;51.002;4.786;2024-03-08T05:06:55;29.60;;;15.03;;
21038;SDS011;10678;51.002;4.786;2024-03-08T05:09:20;29.97;;;16.73;;
21038;SDS011;10678;51.002;4.786;2024-03-08T05:11:46;34.20;;;15.77;;
21038;SDS011;10678;51.002;4.786;2024-03-08T05:14:12;30.50;;;16.20;;
21038;SDS011;10678;51.002;4.786;2024-03-08T05:16:42;31.13;;;15.73;;
21038;SDS011;10678;51.002;4.786;2024-03-08T05:19:08;32.87;;;17.43;;
21038;SDS011;10678;51.002;4.786;2024-03-08T05:21:34;30.10;;;15.43;;
21038;SDS011;10678;51.002;4.786;2024-03-08T05:23:59;31.63;;;16.70;;
21038;SDS011;10678;51.002;4.786;2024-03-08T05:26:25;28.47;;;16.57;;
21038;SDS011;10678;51.002;4.786;2024-03-08T05:28:51;27.07;;;15.43;;
21038;SDS011;10678;51.002;4.786;2024-03-08T05:31:20;27.57;;;15.37;;
21038;SDS011;10678;51.002;4.786;2024-03-08T05:33:49;26.93;;;14.97;;
21038;SDS011;10678;51.002;4.786;2024-03-08T05:36:15;28.57;;;14.73;;
21038;SDS011;10678;51.002;4.786;2024-03-08T05:38:44;27.00;;;14.97;;
21038;SDS011;10678;51.002;4.786;2024-03-08T05:41:09;31.50;;;16.43;;
21038;SDS011;10678;51.002;4.786;2024-03-08T05:43:36;28.80;;;16.43;;
21038;SDS011;10678;51.002;4.786;2024-03-08T05:46:03;29.80;;;15.90;;
21038;SDS011;10678;51.002;4.786;2024-03-08T05:48:29;28.40;;;15.93;;
21038;SDS011;10678;51.002;4.786;2024-03-08T05:50:57;26.43;;;15.07;;
21038;SDS011;10678;51.002;4.786;2024-03-08T05:53:23;27.27;;;15.03;;
21038;SDS011;10678;51.002;4.786;2024-03-08T05:55:49;28.43;;;15.07;;
21038;SDS011;10678;51.002;4.786;2024-03-08T05:58:14;30.20;;;15.57;;
21038;SDS011;10678;51.002;4.786;2024-03-08T06:00:40;28.77;;;15.40;;
21038;SDS011;10678;51.002;4.786;2024-03-08T06:03:06;30.80;;;15.83;;
21038;SDS011;10678;51.002;4.786;2024-03-08T06:05:32;24.70;;;14.10;;
21038;SDS011;10678;51.002;4.786;2024-03-08T06:07:58;28.13;;;16.33;;
21038;SDS011;10678;51.002;4.786;2024-03-08T06:10:24;29.90;;;15.53;;
21038;SDS011;10678;51.002;4.786;2024-03-08T06:12:50;29.10;;;15.67;;
21038;SDS011;10678;51.002;4.786;2024-03-08T06:15:16;26.47;;;15.17;;
21038;SDS011;10678;51.002;4.786;2024-03-08T06:17:42;29.40;;;16.40;;
21038;SDS011;10678;51.002;4.786;2024-03-08T06:20:08;30.53;;;16.07;;
21038;SDS011;10678;51.002;4.786;2024-03-08T06:22:38;26.20;;;15.00;;
21038;SDS011;10678;51.002;4.786;2024-03-08T06:25:07;28.97;;;15.70;;
21038;SDS011;10678;51.002;4.786;2024-03-08T06:27:33;27.63;;;15.00;;
21038;SDS011;10678;51.002;4.786;2024-03-08T06:29:59;30.80;;;15.63;;
21038;SDS011;10678;51.002;4.786;2024-03-08T06:32:25;30.63;;;15.53;;
21038;SDS011;10678;51.002;4.786;2024-03-08T06:34:51;27.77;;;15.77;;
21038;SDS011;10678;51.002;4.786;2024-03-08T06:37:17;29.37;;;16.30;;
21038;SDS011;10678;51.002;4.786;2024-03-08T06:39:47;26.80;;;14.57;;
21038;SDS011;10678;51.002;4.786;2024-03-08T06:42:13;28.73;;;15.23;;
21038;SDS011;10678;51.002;4.786;2024-03-08T06:44:39;26.70;;;15.57;;
21038;SDS011;10678;51.002;4.786;2024-03-08T06:47:13;30.47;;;15.93;;
21038;SDS011;10678;51.002;4.786;2024-03-08T06:49:40;27.93;;;15.70;;
21038;SDS011;10678;51.002;4.786;2024-03-08T06:52:06;27.43;;;15.33;;
21038;SDS011;10678;51.002;4.786;2024-03-08T06:54:34;29.30;;;14.27;;
21038;SDS011;10678;51.002;4.786;2024-03-08T06:57:01;30.97;;;15.63;;
21038;SDS011;10678;51.002;4.786;2024-03-08T06:59:28;26.90;;;15.80;;
21038;SDS011;10678;51.002;4.786;2024-03-08T07:01:54;32.93;;;15.77;;
21038;SDS011;10678;51.002;4.786;2024-03-08T07:04:20;27.87;;;14.60;;
21038;SDS011;10678;51.002;4.786;2024-03-08T07:06:47;34.60;;;15.83;;
21038;SDS011;10678;51.002;4.786;2024-03-08T07:09:15;31.03;;;16.30;;
21038;SDS011;10678;51.002;4.786;2024-03-08T07:11:43;29.27;;;15.83;;
21038;SDS011;10678;51.002;4.786;2024-03-08T07:14:09;30.13;;;16.00;;
21038;SDS011;10678;51.002;4.786;2024-03-08T07:16:34;32.67;;;16.90;;
21038;SDS011;10678;51.002;4.786;2024-03-08T07:19:01;29.97;;;15.70;;
21038;SDS011;10678;51.002;4.786;2024-03-08T07:21:27;31.63;;;16.30;;
21038;SDS011;10678;51.002;4.786;2024-03-08T07:23:52;30.73;;;15.80;;
21038;SDS011;10678;51.002;4.786;2024-03-08T07:26:34;28.50;;;15.63;;
21038;SDS011;10678;51.002;4.786;2024-03-08T07:29:00;31.00;;;15.30;;
21038;SDS011;10678;51.002;4.786;2024-03-08T07:31:26;30.60;;;15.03;;
21038;SDS011;10678;51.002;4.786;2024-03-08T07:34:03;27.40;;;14.63;;
21038;SDS011;10678;51.002;4.786;2024-03-08T07:36:31;28.53;;;15.73;;
21038;SDS011;10678;51.002;4.786;2024-03-08T07:38:57;30.37;;;15.43;;
21038;SDS011;10678;51.002;4.786;2024-03-08T07:41:22;30.10;;;16.90;;
21038;SDS011;10678;51.002;4.786;2024-03-08T07:43:48;29.93;;;14.87;;
21038;SDS011;10678;51.002;4.786;2024-03-08T07:46:14;28.33;;;14.57;;
21038;SDS011;10678;51.002;4.786;2024-03-08T07:48:39;35.67;;;15.53;;
21038;SDS011;10678;51.002;4.786;2024-03-08T07:51:05;26.20;;;14.47;;
21038;SDS011;10678;51.002;4.786;2024-03-08T07:53:31;26.80;;;14.00;;
21038;SDS011;10678;51.002;4.786;2024-03-08T07:55:56;25.20;;;14.20;;
21038;SDS011;10678;51.002;4.786;2024-03-08T07:58:22;22.87;;;13.30;;
21038;SDS011;10678;51.002;4.786;2024-03-08T08:00:48;28.47;;;15.20;;
21038;SDS011;10678;51.002;4.786;2024-03-08T08:03:14;25.93;;;13.93;;
21038;SDS011;10678;51.002;4.786;2024-03-08T08:05:41;24.70;;;14.50;;
21038;SDS011;10678;51.002;4.786;2024-03-08T08:08:09;24.50;;;13.57;;
21038;SDS011;10678;51.002;4.786;2024-03-08T08:10:35;23.50;;;12.60;;
21038;SDS011;10678;51.002;4.786;2024-03-08T08:13:02;27.10;;;14.13;;
21038;SDS011;10678;51.002;4.786;2024-03-08T08:15:29;31.53;;;15.40;;
21038;SDS011;10678;51.002;4.786;2024-03-08T08:17:55;26.80;;;14.50;;
21038;SDS011;10678;51.002;4.786;2024-03-08T08:20:20;24.93;;;14.03;;
21038;SDS011;10678;51.002;4.786;2024-03-08T08:22:48;25.70;;;13.70;;
21038;SDS011;10678;51.002;4.786;2024-03-08T08:25:13;27.60;;;14.13;;
21038;SDS011;10678;51.002;4.786;2024-03-08T08:27:45;22.57;;;12.73;;
21038;SDS011;10678;51.002;4.786;2024-03-08T08:30:12;25.87;;;13.23;;
21038;SDS011;10678;51.002;4.786;2024-03-08T08:32:38;26.00;;;14.00;;
21038;SDS011;10678;51.002;4.786;2024-03-08T08:35:04;25.08;;;13.27;;
21038;SDS011;10678;51.002;4.786;2024-03-08T08:37:31;22.63;;;12.32;;
21038;SDS011;10678;51.002;4.786;2024-03-08T08:39:57;26.08;;;13.73;;
21038;SDS011;10678;51.002;4.786;2024-03-08T08:42:23;23.10;;;12.85;;
21038;SDS011;10678;51.002;4.786;2024-03-08T08:44:49;26.15;;;12.77;;
21038;SDS011;10678;51.002;4.786;2024-03-08T08:47:16;25.13;;;12.52;;
21038;SDS011;10678;51.002;4.786;2024-03-08T08:49:44;26.35;;;12.68;;
21038;SDS011;10678;51.002;4.786;2024-03-08T08:52:11;22.05;;;12.45;;
21038;SDS011;10678;51.002;4.786;2024-03-08T08:54:37;23.80;;;13.57;;
21038;SDS011;10678;51.002;4.786;2024-03-08T08:57:03;20.42;;;12.18;;
21038;SDS011;10678;51.002;4.786;2024-03-08T08:59:32;23.70;;;13.32;;
21038;SDS011;10678;51.002;4.786;2024-03-08T09:02:01;22.45;;;12.65;;
21038;SDS011;10678;51.002;4.786;2024-03-08T09:04:28;22.67;;;11.68;;
21038;SDS011;10678;51.002;4.786;2024-03-08T09:06:54;20.30;;;12.00;;
21038;SDS011;10678;51.002;4.786;2024-03-08T09:09:20;21.23;;;12.63;;
21038;SDS011;10678;51.002;4.786;2024-03-08T09:11:47;19.92;;;12.38;;
21038;SDS011;10678;51.002;4.786;2024-03-08T09:14:12;19.73;;;12.18;;
21038;SDS011;10678;51.002;4.786;2024-03-08T09:16:39;19.75;;;12.25;;
21038;SDS011;10678;51.002;4.786;2024-03-08T09:19:05;17.65;;;11.82;;
21038;SDS011;10678;51.002;4.786;2024-03-08T09:21:31;17.17;;;11.10;;
21038;SDS011;10678;51.002;4.786;2024-03-08T09:23:57;23.88;;;11.75;;
21038;SDS011;10678;51.002;4.786;2024-03-08T09:26:23;17.23;;;10.75;;
21038;SDS011;10678;51.002;4.786;2024-03-08T09:28:49;19.13;;;12.00;;
21038;SDS011;10678;51.002;4.786;2024-03-08T09:31:15;17.70;;;11.23;;
21038;SDS011;10678;51.002;4.786;2024-03-08T09:33:41;16.42;;;11.25;;
21038;SDS011;10678;51.002;4.786;2024-03-08T09:36:07;16.58;;;11.32;;
21038;SDS011;10678;51.002;4.786;2024-03-08T09:38:33;16.27;;;10.90;;
21038;SDS011;10678;51.002;4.786;2024-03-08T09:41:02;18.05;;;10.88;;
21038;SDS011;10678;51.002;4.786;2024-03-08T09:43:29;15.82;;;10.20;;
21038;SDS011;10678;51.002;4.786;2024-03-08T09:45:55;15.90;;;10.63;;
21038;SDS011;10678;51.002;4.786;2024-03-08T09:48:22;16.77;;;10.48;;
21038;SDS011;10678;51.002;4.786;2024-03-08T09:50:48;16.38;;;10.40;;
21038;SDS011;10678;51.002;4.786;2024-03-08T09:53:14;18.20;;;11.00;;
21038;SDS011;10678;51.002;4.786;2024-03-08T09:55:40;15.85;;;10.32;;
21038;SDS011;10678;51.002;4.786;2024-03-08T09:58:11;15.82;;;10.73;;
21038;SDS011;10678;51.002;4.786;2024-03-08T10:00:53;15.15;;;9.90;;
21038;SDS011;10678;51.002;4.786;2024-03-08T10:03:19;18.75;;;10.82;;
21038;SDS011;10678;51.002;4.786;2024-03-08T10:05:45;18.08;;;10.90;;
21038;SDS011;10678;51.002;4.786;2024-03-08T10:08:11;17.60;;;10.50;;
21038;SDS011;10678;51.002;4.786;2024-03-08T10:10:38;18.10;;;10.88;;
21038;SDS011;10678;51.002;4.786;2024-03-08T10:13:07;16.77;;;10.35;;
21038;SDS011;10678;51.002;4.786;2024-03-08T10:15:34;18.42;;;11.40;;
21038;SDS011;10678;51.002;4.786;2024-03-08T10:18:00;15.85;;;10.23;;
21038;SDS011;10678;51.002;4.786;2024-03-08T10:20:30;16.60;;;10.45;;
21038;SDS011;10678;51.002;4.786;2024-03-08T10:22:59;17.52;;;10.55;;
21038;SDS011;10678;51.002;4.786;2024-03-08T10:25:25;15.30;;;10.50;;
21038;SDS011;10678;51.002;4.786;2024-03-08T10:27:51;18.38;;;10.82;;
21038;SDS011;10678;51.002;4.786;2024-03-08T10:30:17;16.58;;;10.75;;
21038;SDS011;10678;51.002;4.786;2024-03-08T10:32:45;17.45;;;10.50;;
21038;SDS011;10678;51.002;4.786;2024-03-08T10:35:11;16.27;;;10.73;;
21038;SDS011;10678;51.002;4.786;2024-03-08T10:40:28;16.05;;;10.13;;
21038;SDS011;10678;51.002;4.786;2024-03-08T10:42:58;15.57;;;10.75;;
21038;SDS011;10678;51.002;4.786;2024-03-08T10:45:31;14.45;;;10.43;;
21038;SDS011;10678;51.002;4.786;2024-03-08T10:50:59;17.20;;;10.30;;
21038;SDS011;10678;51.002;4.786;2024-03-08T10:53:27;14.77;;;10.48;;
21038;SDS011;10678;51.002;4.786;2024-03-08T10:55:57;18.48;;;10.48;;
21038;SDS011;10678;51.002;4.786;2024-03-08T10:58:24;17.83;;;10.68;;
21038;SDS011;10678;51.002;4.786;2024-03-08T11:00:54;15.00;;;9.95;;
21038;SDS011;10678;51.002;4.786;2024-03-08T11:03:54;15.18;;;10.30;;
21038;SDS011;10678;51.002;4.786;2024-03-08T11:08:41;14.98;;;9.65;;
21038;SDS011;10678;51.002;4.786;2024-03-08T11:14:42;16.95;;;10.15;;
21038;SDS011;10678;51.002;4.786;2024-03-08T11:17:07;17.55;;;9.98;;
21038;SDS011;10678;51.002;4.786;2024-03-08T11:19:33;15.10;;;9.88;;
21038;SDS011;10678;51.002;4.786;2024-03-08T11:21:59;18.90;;;10.10;;
21038;SDS011;10678;51.002;4.786;2024-03-08T11:24:26;15.18;;;9.13;;
21038;SDS011;10678;51.002;4.786;2024-03-08T11:26:54;15.52;;;9.63;;
21038;SDS011;10678;51.002;4.786;2024-03-08T11:34:41;18.30;;;10.40;;
21038;SDS011;10678;51.002;4.786;2024-03-08T11:37:17;14.32;;;10.45;;
21038;SDS011;10678;51.002;4.786;2024-03-08T11:39:46;16.55;;;10.93;;
21038;SDS011;10678;51.002;4.786;2024-03-08T11:42:16;19.00;;;10.70;;
21038;SDS011;10678;51.002;4.786;2024-03-08T11:44:43;15.52;;;9.35;;
21038;SDS011;10678;51.002;4.786;2024-03-08T11:47:12;14.55;;;10.30;;
21038;SDS011;10678;51.002;4.786;2024-03-08T11:49:39;14.63;;;10.75;;
21038;SDS011;10678;51.002;4.786;2024-03-08T11:52:15;15.02;;;10.00;;
21038;SDS011;10678;51.002;4.786;2024-03-08T11:54:47;17.60;;;10.40;;
21038;SDS011;10678;51.002;4.786;2024-03-08T11:57:17;16.42;;;10.80;;
21038;SDS011;10678;51.002;4.786;2024-03-08T11:59:49;14.10;;;9.65;;
21038;SDS011;10678;51.002;4.786;2024-03-08T12:02:18;14.52;;;10.48;;
21038;SDS011;10678;51.002;4.786;2024-03-08T12:04:44;16.33;;;10.55;;
21038;SDS011;10678;51.002;4.786;2024-03-08T12:07:11;18.42;;;10.52;;
21038;SDS011;10678;51.002;4.786;2024-03-08T12:09:39;17.02;;;10.18;;
21038;SDS011;10678;51.002;4.786;2024-03-08T12:12:11;17.20;;;10.75;;
21038;SDS011;10678;51.002;4.786;2024-03-08T12:14:37;13.07;;;9.65;;
21038;SDS011;10678;51.002;4.786;2024-03-08T12:17:03;14.50;;;10.15;;
21038;SDS011;10678;51.002;4.786;2024-03-08T12:19:30;16.13;;;10.15;;
21038;SDS011;10678;51.002;4.786;2024-03-08T12:21:56;14.55;;;10.63;;
21038;SDS011;10678;51.002;4.786;2024-03-08T12:24:22;14.20;;;10.18;;
21038;SDS011;10678;51.002;4.786;2024-03-08T12:26:48;16.60;;;11.25;;
21038;SDS011;10678;51.002;4.786;2024-03-08T12:29:21;15.73;;;10.73;;
21038;SDS011;10678;51.002;4.786;2024-03-08T12:31:52;15.90;;;10.80;;
21038;SDS011;10678;51.002;4.786;2024-03-08T12:34:26;16.02;;;10.35;;
21038;SDS011;10678;51.002;4.786;2024-03-08T12:36:53;12.55;;;9.60;;
21038;SDS011;10678;51.002;4.786;2024-03-08T12:39:20;13.40;;;9.77;;
21038;SDS011;10678;51.002;4.786;2024-03-08T12:41:52;12.85;;;10.10;;
21038;SDS011;10678;51.002;4.786;2024-03-08T12:44:19;16.10;;;10.80;;
21038;SDS011;10678;51.002;4.786;2024-03-08T12:46:46;16.15;;;11.27;;
21038;SDS011;10678;51.002;4.786;2024-03-08T12:49:13;16.70;;;10.30;;
21038;SDS011;10678;51.002;4.786;2024-03-08T12:51:42;14.07;;;10.52;;
21038;SDS011;10678;51.002;4.786;2024-03-08T12:54:09;13.88;;;10.05;;
21038;SDS011;10678;51.002;4.786;2024-03-08T12:56:35;15.23;;;9.70;;
21038;SDS011;10678;51.002;4.786;2024-03-08T12:59:02;14.90;;;11.32;;
21038;SDS011;10678;51.002;4.786;2024-03-08T13:01:30;16.45;;;10.05;;
21038;SDS011;10678;51.002;4.786;2024-03-08T13:03:57;15.27;;;10.40;;
21038;SDS011;10678;51.002;4.786;2024-03-08T13:06:27;15.30;;;10.25;;
21038;SDS011;10678;51.002;4.786;2024-03-08T13:08:53;14.32;;;10.15;;
21038;SDS011;10678;51.002;4.786;2024-03-08T13:11:20;13.18;;;9.55;;
21038;SDS011;10678;51.002;4.786;2024-03-08T13:13:46;13.25;;;9.73;;
21038;SDS011;10678;51.002;4.786;2024-03-08T13:16:12;17.00;;;10.07;;
21038;SDS011;10678;51.002;4.786;2024-03-08T13:18:42;16.08;;;10.75;;
21038;SDS011;10678;51.002;4.786;2024-03-08T13:21:08;13.80;;;9.93;;
21038;SDS011;10678;51.002;4.786;2024-03-08T13:23:39;14.50;;;9.82;;
21038;SDS011;10678;51.002;4.786;2024-03-08T13:26:09;15.50;;;10.43;;
21038;SDS011;10678;51.002;4.786;2024-03-08T13:28:50;14.55;;;10.30;;
21038;SDS011;10678;51.002;4.786;2024-03-08T13:31:21;17.10;;;10.57;;
21038;SDS011;10678;51.002;4.786;2024-03-08T13:33:47;15.10;;;10.13;;
21038;SDS011;10678;51.002;4.786;2024-03-08T13:36:13;15.45;;;10.00;;
21038;SDS011;10678;51.002;4.786;2024-03-08T13:38:43;15.82;;;9.68;;
21038;SDS011;10678;51.002;4.786;2024-03-08T13:41:10;15.50;;;9.65;;
21038;SDS011;10678;51.002;4.786;2024-03-08T13:43:38;19.20;;;10.30;;
21038;SDS011;10678;51.002;4.786;2024-03-08T13:46:05;16.77;;;9.70;;
21038;SDS011;10678;51.002;4.786;2024-03-08T13:48:32;19.38;;;9.70;;
21038;SDS011;10678;51.002;4.786;2024-03-08T13:50:58;16.70;;;10.30;;
21038;SDS011;10678;51.002;4.786;2024-03-08T13:53:25;16.88;;;9.85;;
21038;SDS011;10678;51.002;4.786;2024-03-08T13:55:51;17.23;;;9.80;;
21038;SDS011;10678;51.002;4.786;2024-03-08T13:58:17;16.73;;;10.05;;
21038;SDS011;10678;51.002;4.786;2024-03-08T14:00:42;19.40;;;10.20;;
21038;SDS011;10678;51.002;4.786;2024-03-08T14:03:11;17.85;;;9.70;;
21038;SDS011;10678;51.002;4.786;2024-03-08T14:05:40;16.08;;;9.93;;
21038;SDS011;10678;51.002;4.786;2024-03-08T14:08:07;18.55;;;10.25;;
21038;SDS011;10678;51.002;4.786;2024-03-08T14:10:34;19.70;;;11.27;;
21038;SDS011;10678;51.002;4.786;2024-03-08T14:13:02;16.70;;;8.98;;
21038;SDS011;10678;51.002;4.786;2024-03-08T14:15:29;18.92;;;10.10;;
21038;SDS011;10678;51.002;4.786;2024-03-08T14:17:56;18.80;;;10.27;;
21038;SDS011;10678;51.002;4.786;2024-03-08T14:20:22;19.80;;;10.20;;
21038;SDS011;10678;51.002;4.786;2024-03-08T14:22:59;17.70;;;10.05;;
21038;SDS011;10678;51.002;4.786;2024-03-08T14:25:25;17.50;;;9.55;;
21038;SDS011;10678;51.002;4.786;2024-03-08T14:27:51;17.63;;;10.48;;
21038;SDS011;10678;51.002;4.786;2024-03-08T14:30:23;18.88;;;10.32;;
21038;SDS011;10678;51.002;4.786;2024-03-08T14:33:03;16.17;;;9.50;;
21038;SDS011;10678;51.002;4.786;2024-03-08T14:35:36;20.20;;;10.68;;
21038;SDS011;10678;51.002;4.786;2024-03-08T14:38:03;17.95;;;9.70;;
21038;SDS011;10678;51.002;4.786;2024-03-08T14:40:29;16.50;;;10.18;;
21038;SDS011;10678;51.002;4.786;2024-03-08T14:42:55;20.65;;;10.43;;